Time;durP1;ratioP1;P1;durP2;ratioP2;P2;SDS_P1;SDS_P2;PMS_P1;PMS_P2;Temp;Humidity;BMP_temperature;BMP_pressure;BME280_temperature;BME280_humidity;BME280_pressure;Samples;Min_cycle;Max_cycle;Signal;HPM_P1;HPM_P2
2024/03/09 00:00:17;;;;;;;;;;;4.90;99.90;;;;;;2060568;28;19968;-78
2024/03/09 00:01:18;;;;;;;;;;;4.90;99.90;;;;;;2069202;28;19917;-78
2024/03/09 00:02:18;;;;;;;;;;;4.90;99.90;;;;;;2070443;28;20299;-78
2024/03/09 00:03:19;;;;;;;;;;;4.90;99.90;;;;;;2069501;28;19909;-78
2024/03/09 00:04:22;;;;;;;;;;;4.80;99.90;;;;;;2072393;28;19944;-78
2024/03/09 00:05:26;;;;;;;;;;;4.80;99.90;;;;;;2074482;28;19980;-77
2024/03/09 00:06:26;;;;;;;;;;;4.90;99.90;;;;;;2075623;28;19944;-78
2024/03/09 00:07:27;;;;;;;;;;;4.90;99.90;;;;;;2061982;28;19966;-74
2024/03/09 00:08:28;;;;;;;;;;;4.90;99.90;;;;;;2069607;28;20287;-79
2024/03/09 00:09:29;;;;;;;;;;;4.90;99.90;;;;;;2073097;28;19940;-79
2024/03/09 00:10:29;;;;;;;;;;;4.90;99.90;;;;;;2061725;28;19937;-79
2024/03/09 00:11:31;;;;;;;;;;;4.90;99.90;;;;;;2064618;28;20019;-79
2024/03/09 00:12:33;;;;;;;;;;;4.90;99.90;;;;;;2060713;28;19922;-80
2024/03/09 00:13:35;;;;;;;;;;;4.80;99.90;;;;;;2072956;28;19956;-78
2024/03/09 00:14:38;;;;;;;;;;;4.80;99.90;;;;;;2068631;28;19913;-78
2024/03/09 00:15:41;;;;;;;;;;;4.90;99.90;;;;;;2068887;28;19921;-79
2024/03/09 00:16:42;;;;;;;;;;;4.80;99.90;;;;;;2068948;28;19917;-80
2024/03/09 00:17:42;;;;;;;;;;;4.80;99.90;;;;;;2069350;28;20023;-79
2024/03/09 00:18:43;;;;;;;;;;;4.80;99.90;;;;;;2069755;28;20099;-81
2024/03/09 00:19:44;;;;;;;;;;;4.80;99.90;;;;;;2069718;28;19995;-80
2024/03/09 00:20:45;;;;;;;;;;;4.70;99.90;;;;;;2070409;28;19980;-80
2024/03/09 00:21:45;;;;;;;;;;;4.70;99.90;;;;;;2070090;28;20399;-81
2024/03/09 00:22:46;;;;;;;;;;;4.70;99.90;;;;;;2061653;28;21247;-83
2024/03/09 00:23:50;;;;;;;;;;;4.70;99.90;;;;;;2065561;28;19922;-83
2024/03/09 00:24:52;;;;;;;;;;;4.70;99.90;;;;;;2076012;28;19949;-82
2024/03/09 00:25:52;;;;;;;;;;;4.70;99.90;;;;;;2081970;28;23018;-81
2024/03/09 00:26:53;;;;;;;;;;;4.70;99.90;;;;;;2073809;28;19927;-82
2024/03/09 00:27:54;;;;;;;;;;;4.70;99.90;;;;;;2066468;28;19957;-81
2024/03/09 00:28:54;;;;;;;;;;;4.70;99.90;;;;;;2069582;28;19921;-78
2024/03/09 00:29:55;;;;;;;;;;;4.70;99.90;;;;;;2068412;28;19917;-80
2024/03/09 00:30:56;;;;;;;;;;;4.70;99.90;;;;;;2068343;28;20474;-80
2024/03/09 00:31:57;;;;;;;;;;;4.70;99.90;;;;;;2065577;28;20450;-79
2024/03/09 00:32:59;;;;;;;;;;;4.70;99.90;;;;;;2068659;28;19963;-78
2024/03/09 00:33:59;;;;;;;;;;;4.80;99.90;;;;;;2069227;28;19921;-80
2024/03/09 00:35:00;;;;;;;;;;;4.80;99.90;;;;;;2069092;28;19919;-80
2024/03/09 00:36:00;;;;;;;;;;;4.80;99.90;;;;;;2068038;28;20383;-78
2024/03/09 00:37:02;;;;;;;;;;;4.90;99.90;;;;;;2060478;28;19918;-80
2024/03/09 00:38:03;;;;;;;;;;;4.90;99.90;;;;;;2068138;28;19964;-77
2024/03/09 00:39:04;;;;;;;;;;;4.90;99.90;;;;;;2068204;28;19914;-79
2024/03/09 00:40:08;;;;;;;;;;;4.90;99.90;;;;;;2068234;28;19964;-77
2024/03/09 00:41:09;;;;;;;;;;;4.90;99.90;;;;;;2068444;28;19917;-69
2024/03/09 00:42:14;;;;;;;;;;;4.90;99.90;;;;;;2067937;28;20000;-69
2024/03/09 00:43:14;;;;;;;;;;;4.90;99.90;;;;;;2064485;28;19953;-74
2024/03/09 00:44:15;;;;;;;;;;;4.90;99.90;;;;;;2064191;28;19954;-80
2024/03/09 00:45:16;;;;;;;;;;;4.90;99.90;;;;;;2068030;28;19943;-73
2024/03/09 00:46:16;;;;;;;;;;;4.90;99.90;;;;;;2068604;28;19972;-75
2024/03/09 00:47:17;;;;;;;;;;;4.90;99.90;;;;;;2068484;28;19922;-73
2024/03/09 00:48:19;;;;;;;;;;;4.90;99.90;;;;;;2068428;28;19969;-74
2024/03/09 00:49:19;;;;;;;;;;;4.90;99.90;;;;;;2068746;28;19921;-77
2024/03/09 00:50:21;;;;;;;;;;;4.90;99.90;;;;;;2068762;28;19924;-75
2024/03/09 00:51:21;;;;;;;;;;;4.90;99.90;;;;;;2068675;28;19917;-74
2024/03/09 00:52:25;;;;;;;;;;;4.90;99.90;;;;;;2059715;28;19924;-75
2024/03/09 00:53:25;;;;;;;;;;;4.90;99.90;;;;;;2060051;28;20343;-75
2024/03/09 00:54:26;;;;;;;;;;;4.90;99.90;;;;;;2067874;28;20799;-74
2024/03/09 00:55:27;;;;;;;;;;;4.90;99.90;;;;;;2072974;28;19972;-74
2024/03/09 00:56:29;;;;;;;;;;;4.90;99.90;;;;;;2067804;28;19918;-75
2024/03/09 00:57:33;;;;;;;;;;;4.90;99.90;;;;;;2067641;28;19932;-74
2024/03/09 00:58:35;;;;;;;;;;;4.90;99.90;;;;;;2068694;28;19960;-75
2024/03/09 00:59:36;;;;;;;;;;;4.90;99.90;;;;;;2067995;28;19981;-76
2024/03/09 01:00:37;;;;;;;;;;;4.90;99.90;;;;;;2067780;28;19933;-74
2024/03/09 01:01:37;;;;;;;;;;;4.90;99.90;;;;;;2070329;28;19921;-75
2024/03/09 01:02:38;;;;;;;;;;;4.90;99.90;;;;;;2068496;28;19918;-74
2024/03/09 01:03:42;;;;;;;;;;;4.90;99.90;;;;;;2068027;28;20016;-75
2024/03/09 01:04:43;;;;;;;;;;;4.90;99.90;;;;;;2060070;28;19977;-74
2024/03/09 01:05:44;;;;;;;;;;;4.80;99.90;;;;;;2067841;28;19920;-74
2024/03/09 01:06:44;;;;;;;;;;;4.90;99.90;;;;;;2068593;28;20589;-75
2024/03/09 01:07:45;;;;;;;;;;;4.90;99.90;;;;;;2068392;28;19929;-74
2024/03/09 01:08:45;;;;;;;;;;;4.90;99.90;;;;;;2068392;28;19917;-76
2024/03/09 01:09:48;;;;;;;;;;;4.80;99.90;;;;;;2067866;28;19924;-75
2024/03/09 01:10:48;;;;;;;;;;;4.80;99.90;;;;;;2072712;28;20418;-75
2024/03/09 01:11:48;;;;;;;;;;;4.90;99.90;;;;;;2075834;28;19967;-76
2024/03/09 01:12:49;;;;;;;;;;;4.80;99.90;;;;;;2068279;28;20391;-75
2024/03/09 01:13:51;;;;;;;;;;;4.80;99.90;;;;;;2067922;28;19957;-77
2024/03/09 01:14:52;;;;;;;;;;;4.80;99.90;;;;;;2068218;28;19913;-81
2024/03/09 01:15:53;;;;;;;;;;;4.80;99.90;;;;;;2069269;28;19913;-81
2024/03/09 01:16:53;;;;;;;;;;;4.80;99.90;;;;;;2068257;28;20015;-82
2024/03/09 01:17:54;;;;;;;;;;;4.80;99.90;;;;;;2068115;28;19914;-81
2024/03/09 01:18:55;;;;;;;;;;;4.90;99.90;;;;;;2068931;28;20344;-82
2024/03/09 01:19:55;;;;;;;;;;;4.80;99.90;;;;;;2068225;28;19917;-82
2024/03/09 01:20:56;;;;;;;;;;;4.90;99.90;;;;;;2068107;28;19917;-80
2024/03/09 01:22:04;;;;;;;;;;;4.80;99.90;;;;;;2065489;28;19921;-81
2024/03/09 01:23:05;;;;;;;;;;;4.90;99.90;;;;;;2070677;28;19944;-80
2024/03/09 01:24:05;;;;;;;;;;;4.90;99.90;;;;;;2069662;28;19948;-81
2024/03/09 01:25:06;;;;;;;;;;;4.80;99.90;;;;;;2069142;28;20723;-81
2024/03/09 01:26:09;;;;;;;;;;;4.90;99.90;;;;;;2068688;28;20278;-80
2024/03/09 01:27:10;;;;;;;;;;;4.90;99.90;;;;;;2068302;28;20323;-81
2024/03/09 01:28:11;;;;;;;;;;;4.80;99.90;;;;;;2068396;28;19936;-81
2024/03/09 01:29:11;;;;;;;;;;;4.80;99.90;;;;;;2068694;28;19937;-80
2024/03/09 01:30:12;;;;;;;;;;;4.80;99.90;;;;;;2068085;28;19914;-80
2024/03/09 01:31:14;;;;;;;;;;;4.80;99.90;;;;;;2068058;28;19948;-80
2024/03/09 01:32:14;;;;;;;;;;;4.90;99.90;;;;;;2066650;28;19918;-81
2024/03/09 01:33:15;;;;;;;;;;;4.90;99.90;;;;;;2069160;28;20004;-80
2024/03/09 01:34:15;;;;;;;;;;;4.90;99.90;;;;;;2073677;28;19909;-80
2024/03/09 01:35:16;;;;;;;;;;;4.90;99.90;;;;;;2069810;28;20118;-78
2024/03/09 01:36:17;;;;;;;;;;;4.90;99.90;;;;;;2068139;28;20328;-78
2024/03/09 01:37:19;;;;;;;;;;;4.90;99.90;;;;;;2067721;28;19926;-81
2024/03/09 01:38:21;;;;;;;;;;;4.90;99.90;;;;;;2069346;28;19977;-79
2024/03/09 01:39:22;;;;;;;;;;;4.80;99.90;;;;;;2071355;28;20443;-81
2024/03/09 01:40:23;;;;;;;;;;;4.90;99.90;;;;;;2068658;28;20502;-80
2024/03/09 01:41:24;;;;;;;;;;;4.90;99.90;;;;;;2068163;28;20074;-78
2024/03/09 01:42:26;;;;;;;;;;;4.90;99.90;;;;;;2068885;28;19913;-79
2024/03/09 01:43:27;;;;;;;;;;;4.90;99.90;;;;;;2068588;28;19917;-80
2024/03/09 01:44:27;;;;;;;;;;;4.90;99.90;;;;;;2068341;28;19917;-80
2024/03/09 01:45:28;;;;;;;;;;;5.00;99.90;;;;;;2068517;28;19937;-79
2024/03/09 01:46:28;;;;;;;;;;;4.90;99.90;;;;;;2068502;28;20187;-79
2024/03/09 01:47:29;;;;;;;;;;;4.90;99.90;;;;;;2067777;28;19921;-79
2024/03/09 01:48:30;;;;;;;;;;;4.90;99.90;;;;;;2067788;28;19917;-79
2024/03/09 01:49:30;;;;;;;;;;;4.90;99.90;;;;;;2068608;28;19913;-79
2024/03/09 01:50:31;;;;;;;;;;;4.90;99.90;;;;;;2067473;28;20013;-79
2024/03/09 01:51:32;;;;;;;;;;;4.90;99.90;;;;;;2059399;28;19961;-79
2024/03/09 01:52:33;;;;;;;;;;;4.90;99.90;;;;;;2059883;28;19972;-79
2024/03/09 01:53:36;;;;;;;;;;;4.90;99.90;;;;;;2067897;28;20039;-79
2024/03/09 01:54:38;;;;;;;;;;;4.90;99.90;;;;;;2074360;28;19913;-79
2024/03/09 01:55:38;;;;;;;;;;;4.80;99.90;;;;;;2076050;28;19913;-79
2024/03/09 01:56:39;;;;;;;;;;;4.80;99.90;;;;;;2067630;28;20390;-80
2024/03/09 01:57:40;;;;;;;;;;;4.80;99.90;;;;;;2067566;28;20198;-80
2024/03/09 01:58:41;;;;;;;;;;;4.80;99.90;;;;;;2071526;28;19959;-80
2024/03/09 01:59:46;;;;;;;;;;;4.80;99.90;;;;;;2068052;28;19921;-79
2024/03/09 02:01:04;;;;;;;;;;;4.80;99.90;;;;;;2068490;28;20848;-80
2024/03/09 02:02:04;;;;;;;;;;;4.80;99.90;;;;;;2067758;28;19910;-79
2024/03/09 02:03:12;;;;;;;;;;;4.80;99.90;;;;;;2063546;28;19918;-80
2024/03/09 02:04:13;;;;;;;;;;;4.80;99.90;;;;;;2068064;28;20280;-79
2024/03/09 02:05:13;;;;;;;;;;;4.80;99.90;;;;;;2068305;28;19925;-80
2024/03/09 02:06:14;;;;;;;;;;;4.80;99.90;;;;;;2067842;28;19913;-79
2024/03/09 02:07:16;;;;;;;;;;;4.80;99.90;;;;;;2066424;28;19921;-79
2024/03/09 02:08:17;;;;;;;;;;;4.80;99.90;;;;;;2065448;28;20338;-79
2024/03/09 02:09:18;;;;;;;;;;;4.70;99.90;;;;;;2067576;28;19953;-80
2024/03/09 02:10:19;;;;;;;;;;;4.80;99.90;;;;;;2067801;28;19921;-81
2024/03/09 02:11:20;;;;;;;;;;;4.80;99.90;;;;;;2066452;28;20737;-83
2024/03/09 02:12:22;;;;;;;;;;;4.70;99.90;;;;;;2067155;28;19969;-82
2024/03/09 02:13:23;;;;;;;;;;;4.70;99.90;;;;;;2067033;28;20612;-81
2024/03/09 02:14:24;;;;;;;;;;;4.70;99.90;;;;;;2066275;28;19913;-80
2024/03/09 02:15:29;;;;;;;;;;;4.70;99.90;;;;;;2067736;28;19918;-82
2024/03/09 02:16:30;;;;;;;;;;;4.70;99.90;;;;;;2068138;28;19920;-82
2024/03/09 02:17:33;;;;;;;;;;;4.80;99.90;;;;;;2067487;28;20036;-81
2024/03/09 02:18:33;;;;;;;;;;;4.80;99.90;;;;;;2067047;28;20282;-80
2024/03/09 02:19:40;;;;;;;;;;;4.80;99.90;;;;;;2067937;28;19913;-84
2024/03/09 02:20:41;;;;;;;;;;;4.70;99.90;;;;;;2066468;28;19929;-83
2024/03/09 02:21:45;;;;;;;;;;;4.80;99.90;;;;;;2067593;28;19914;-84
2024/03/09 02:22:46;;;;;;;;;;;4.70;99.90;;;;;;2067538;28;20478;-82
2024/03/09 02:23:47;;;;;;;;;;;4.70;99.90;;;;;;2067208;28;19913;-83
2024/03/09 02:24:55;;;;;;;;;;;4.70;99.90;;;;;;2068313;28;19928;-84
2024/03/09 02:25:56;;;;;;;;;;;4.60;99.90;;;;;;2067590;28;20288;-82
2024/03/09 02:26:59;;;;;;;;;;;4.70;99.90;;;;;;2067448;28;19918;-81
2024/03/09 02:27:59;;;;;;;;;;;4.80;99.90;;;;;;2067618;28;20004;-81
2024/03/09 02:29:00;;;;;;;;;;;4.80;99.90;;;;;;2067285;28;20279;-82
2024/03/09 02:30:00;;;;;;;;;;;4.80;99.90;;;;;;2067535;28;20004;-81
2024/03/09 02:31:01;;;;;;;;;;;4.80;99.90;;;;;;2067061;28;19913;-80
2024/03/09 02:32:03;;;;;;;;;;;4.80;99.90;;;;;;2062943;28;19997;-79
2024/03/09 02:33:08;;;;;;;;;;;4.80;99.90;;;;;;2066867;28;19914;-82
2024/03/09 02:34:08;;;;;;;;;;;4.80;99.90;;;;;;2067730;28;19957;-80
2024/03/09 02:35:09;;;;;;;;;;;4.80;99.90;;;;;;2067411;28;19917;-81
2024/03/09 02:36:10;;;;;;;;;;;4.80;99.90;;;;;;2058904;28;19917;-80
2024/03/09 02:37:10;;;;;;;;;;;4.80;99.90;;;;;;2067238;28;19922;-80
2024/03/09 02:38:11;;;;;;;;;;;4.80;99.90;;;;;;2067455;28;19913;-81
2024/03/09 02:39:11;;;;;;;;;;;4.70;99.90;;;;;;2067037;28;19960;-81
2024/03/09 02:40:12;;;;;;;;;;;4.70;99.90;;;;;;2065831;28;20331;-81
2024/03/09 02:41:12;;;;;;;;;;;4.70;99.90;;;;;;2067527;28;19971;-81
2024/03/09 02:42:13;;;;;;;;;;;4.70;99.90;;;;;;2067829;28;20463;-81
2024/03/09 02:43:16;;;;;;;;;;;4.70;99.90;;;;;;2066729;28;19914;-81
2024/03/09 02:44:17;;;;;;;;;;;4.60;99.90;;;;;;2067010;28;19914;-82
2024/03/09 02:45:17;;;;;;;;;;;4.60;99.90;;;;;;2067343;28;20272;-82
2024/03/09 02:46:21;;;;;;;;;;;4.60;99.90;;;;;;2067023;28;19924;-83
2024/03/09 02:47:21;;;;;;;;;;;4.60;99.90;;;;;;2067172;28;20379;-81
2024/03/09 02:48:22;;;;;;;;;;;4.70;99.90;;;;;;2066991;28;19913;-81
2024/03/09 02:49:24;;;;;;;;;;;4.60;99.90;;;;;;2066806;28;20484;-81
2024/03/09 02:50:26;;;;;;;;;;;4.70;99.90;;;;;;2067292;28;19917;-80
2024/03/09 02:51:27;;;;;;;;;;;4.60;99.90;;;;;;2067513;28;19953;-80
2024/03/09 02:52:27;;;;;;;;;;;4.70;99.90;;;;;;2067362;28;19922;-81
2024/03/09 02:53:28;;;;;;;;;;;4.70;99.90;;;;;;2067255;28;19971;-79
2024/03/09 02:54:28;;;;;;;;;;;4.60;99.90;;;;;;2067618;28;19967;-81
2024/03/09 02:55:29;;;;;;;;;;;4.70;99.90;;;;;;2067960;28;19917;-82
2024/03/09 02:56:30;;;;;;;;;;;4.70;99.90;;;;;;2068436;28;19917;-81
2024/03/09 02:57:31;;;;;;;;;;;4.60;99.90;;;;;;2067497;28;19921;-81
2024/03/09 02:58:32;;;;;;;;;;;4.70;99.90;;;;;;2067349;28;20277;-81
2024/03/09 02:59:33;;;;;;;;;;;4.70;99.90;;;;;;2067969;28;19965;-82
2024/03/09 03:00:33;;;;;;;;;;;4.70;99.90;;;;;;2068549;28;20295;-81
2024/03/09 03:01:34;;;;;;;;;;;4.70;99.90;;;;;;2068270;28;19921;-80
2024/03/09 03:04:00;;;;;;;;;;;4.80;99.90;;;;;;2065011;28;20012;-81
2024/03/09 03:05:01;;;;;;;;;;;4.80;99.90;;;;;;2060105;28;20837;-82
2024/03/09 03:06:02;;;;;;;;;;;4.80;99.90;;;;;;2067432;28;19960;-81
2024/03/09 03:07:02;;;;;;;;;;;4.80;99.90;;;;;;2066716;28;19980;-81
2024/03/09 03:08:04;;;;;;;;;;;4.80;99.90;;;;;;2068047;28;19918;-81
2024/03/09 03:09:16;;;;;;;;;;;4.80;99.90;;;;;;2067847;28;20287;-81
2024/03/09 03:10:16;;;;;;;;;;;4.70;99.90;;;;;;2068172;28;20375;-81
2024/03/09 03:11:17;;;;;;;;;;;4.70;99.90;;;;;;2068586;28;19918;-81
2024/03/09 03:12:18;;;;;;;;;;;4.70;99.90;;;;;;2067775;28;20032;-81
2024/03/09 03:13:18;;;;;;;;;;;4.70;99.90;;;;;;2067789;28;19940;-80
2024/03/09 03:14:20;;;;;;;;;;;4.70;99.90;;;;;;2072517;28;19920;-81
2024/03/09 03:15:20;;;;;;;;;;;4.70;99.90;;;;;;2067883;28;20295;-82
2024/03/09 03:16:35;;;;;;;;;;;4.70;99.90;;;;;;2071367;28;19936;-81
2024/03/09 03:17:36;;;;;;;;;;;4.70;99.90;;;;;;2068884;28;19925;-83
2024/03/09 03:18:36;;;;;;;;;;;4.70;99.90;;;;;;2068662;28;20700;-80
2024/03/09 03:19:37;;;;;;;;;;;4.70;99.90;;;;;;2070534;28;19921;-81
2024/03/09 03:20:37;;;;;;;;;;;4.80;99.90;;;;;;2069240;28;20016;-81
2024/03/09 03:21:40;;;;;;;;;;;4.80;99.90;;;;;;2074908;28;20093;-81
2024/03/09 03:22:41;;;;;;;;;;;4.80;99.90;;;;;;2074656;28;19948;-83
2024/03/09 03:23:42;;;;;;;;;;;4.80;99.90;;;;;;2074392;28;20012;-82
2024/03/09 03:24:43;;;;;;;;;;;4.80;99.90;;;;;;2066620;28;19936;-83
2024/03/09 03:25:44;;;;;;;;;;;4.80;99.90;;;;;;2075155;28;19973;-81
2024/03/09 03:26:46;;;;;;;;;;;4.90;99.90;;;;;;2069029;28;19925;-82
2024/03/09 03:27:47;;;;;;;;;;;4.90;99.90;;;;;;2064063;28;19967;-78
2024/03/09 03:28:48;;;;;;;;;;;4.90;99.90;;;;;;2067425;28;19917;-80
2024/03/09 03:29:51;;;;;;;;;;;4.90;99.90;;;;;;2059257;28;19918;-81
2024/03/09 03:30:51;;;;;;;;;;;5.00;99.90;;;;;;2067192;28;19921;-81
2024/03/09 03:31:52;;;;;;;;;;;5.00;99.90;;;;;;2063661;28;19909;-79
2024/03/09 03:32:52;;;;;;;;;;;5.00;99.90;;;;;;2068046;28;19913;-82
2024/03/09 03:33:53;;;;;;;;;;;5.00;99.90;;;;;;2068111;28;19948;-81
2024/03/09 03:34:53;;;;;;;;;;;5.10;99.90;;;;;;2068277;28;19917;-80
2024/03/09 03:35:54;;;;;;;;;;;5.20;99.90;;;;;;2063331;28;19917;-79
2024/03/09 03:36:54;;;;;;;;;;;5.20;99.90;;;;;;2067242;28;19917;-81
2024/03/09 03:37:54;;;;;;;;;;;5.20;99.90;;;;;;2067206;28;19918;-80
2024/03/09 03:38:55;;;;;;;;;;;5.20;99.90;;;;;;2059226;28;19918;-80
2024/03/09 03:39:57;;;;;;;;;;;5.20;99.90;;;;;;2067503;28;19968;-79
2024/03/09 03:40:58;;;;;;;;;;;5.20;99.90;;;;;;2067682;28;19913;-80
2024/03/09 03:41:58;;;;;;;;;;;5.20;99.90;;;;;;2068538;28;19917;-79
2024/03/09 03:42:59;;;;;;;;;;;5.20;99.90;;;;;;2067745;28;20612;-79
2024/03/09 03:43:59;;;;;;;;;;;5.30;99.90;;;;;;2067830;28;19918;-79
2024/03/09 03:45:00;;;;;;;;;;;5.30;99.90;;;;;;2068131;28;19913;-80
2024/03/09 03:46:01;;;;;;;;;;;5.30;99.90;;;;;;2067708;28;20164;-79
2024/03/09 03:47:02;;;;;;;;;;;5.30;99.90;;;;;;2065681;28;19917;-81
2024/03/09 03:48:04;;;;;;;;;;;5.30;99.90;;;;;;2065933;28;19976;-81
2024/03/09 03:49:05;;;;;;;;;;;5.30;99.90;;;;;;2067773;28;19948;-80
2024/03/09 03:50:08;;;;;;;;;;;5.30;99.90;;;;;;2068107;28;20019;-80
2024/03/09 03:51:12;;;;;;;;;;;5.30;99.90;;;;;;2069278;28;19918;-81
2024/03/09 03:52:14;;;;;;;;;;;5.30;99.90;;;;;;2069160;28;19921;-83
2024/03/09 03:53:14;;;;;;;;;;;5.40;99.90;;;;;;2068667;28;20383;-82
2024/03/09 03:54:15;;;;;;;;;;;5.40;99.90;;;;;;2067974;28;19944;-80
2024/03/09 03:55:16;;;;;;;;;;;5.40;99.90;;;;;;2067545;28;20291;-80
2024/03/09 03:56:17;;;;;;;;;;;5.40;99.90;;;;;;2067913;28;19914;-81
2024/03/09 03:57:17;;;;;;;;;;;5.40;99.90;;;;;;2067232;28;20056;-81
2024/03/09 03:58:18;;;;;;;;;;;5.40;99.90;;;;;;2063319;28;20012;-81
2024/03/09 03:59:18;;;;;;;;;;;5.40;99.90;;;;;;2066968;28;19961;-81
2024/03/09 04:00:21;;;;;;;;;;;5.40;99.90;;;;;;2067694;28;19923;-81
2024/03/09 04:01:23;;;;;;;;;;;5.50;99.90;;;;;;2065345;28;19919;-79
2024/03/09 04:02:24;;;;;;;;;;;5.50;99.90;;;;;;2069336;28;19918;-81
2024/03/09 04:03:29;;;;;;;;;;;5.40;99.90;;;;;;2069383;28;19917;-81
2024/03/09 04:04:30;;;;;;;;;;;5.40;99.90;;;;;;2069253;28;20505;-81
2024/03/09 04:05:33;;;;;;;;;;;5.40;99.90;;;;;;2069174;28;19960;-81
2024/03/09 04:06:33;;;;;;;;;;;5.40;99.90;;;;;;2069528;28;19917;-81
2024/03/09 04:07:34;;;;;;;;;;;5.40;99.90;;;;;;2070502;28;20396;-81
2024/03/09 04:08:35;;;;;;;;;;;5.50;99.90;;;;;;2072103;28;20433;-81
2024/03/09 04:09:35;;;;;;;;;;;5.50;99.90;;;;;;2068805;28;20019;-81
2024/03/09 04:10:36;;;;;;;;;;;5.50;99.90;;;;;;2060413;28;20454;-81
2024/03/09 04:11:37;;;;;;;;;;;5.50;99.90;;;;;;2068430;28;19918;-81
2024/03/09 04:12:40;;;;;;;;;;;5.40;99.90;;;;;;2068557;28;19940;-81
2024/03/09 04:13:41;;;;;;;;;;;5.40;99.90;;;;;;2070471;28;19910;-82
2024/03/09 04:14:41;;;;;;;;;;;5.50;99.90;;;;;;2073186;28;20588;-83
2024/03/09 04:15:44;;;;;;;;;;;5.50;99.90;;;;;;2070432;28;20342;-81
2024/03/09 04:16:44;;;;;;;;;;;5.50;99.90;;;;;;2068640;28;19918;-81
2024/03/09 04:17:45;;;;;;;;;;;5.50;99.90;;;;;;2068479;28;19929;-81
2024/03/09 04:18:45;;;;;;;;;;;5.50;99.90;;;;;;2069332;28;20347;-82
2024/03/09 04:19:47;;;;;;;;;;;5.50;99.90;;;;;;2069318;28;20029;-82
2024/03/09 04:20:47;;;;;;;;;;;5.50;99.90;;;;;;2069080;28;20470;-82
2024/03/09 04:21:48;;;;;;;;;;;5.50;99.90;;;;;;2070563;28;20012;-82
2024/03/09 04:22:51;;;;;;;;;;;5.50;99.90;;;;;;2073109;28;20383;-84
2024/03/09 04:23:51;;;;;;;;;;;5.50;99.90;;;;;;2068638;28;20064;-82
2024/03/09 04:24:53;;;;;;;;;;;5.50;99.90;;;;;;2068484;28;19913;-82
2024/03/09 04:25:54;;;;;;;;;;;5.50;99.90;;;;;;2068630;28;19914;-83
2024/03/09 04:26:56;;;;;;;;;;;5.50;99.90;;;;;;2068708;28;19925;-82
2024/03/09 04:27:56;;;;;;;;;;;5.50;99.90;;;;;;2068715;28;20016;-83
2024/03/09 04:28:58;;;;;;;;;;;5.50;99.90;;;;;;2068310;28;19913;-81
2024/03/09 04:29:59;;;;;;;;;;;5.50;99.90;;;;;;2068571;28;19956;-81
2024/03/09 04:30:59;;;;;;;;;;;5.60;99.90;;;;;;2068192;28;20481;-80
2024/03/09 04:32:00;;;;;;;;;;;5.50;99.90;;;;;;2055996;28;19920;-81
2024/03/09 04:33:04;;;;;;;;;;;5.50;99.90;;;;;;2060893;28;20443;-81
2024/03/09 04:34:10;;;;;;;;;;;5.50;99.90;;;;;;2065748;28;19983;-82
2024/03/09 04:35:11;;;;;;;;;;;5.50;99.90;;;;;;2070762;28;20499;-82
2024/03/09 04:36:12;;;;;;;;;;;5.50;99.90;;;;;;2071869;28;19913;-81
2024/03/09 04:37:16;;;;;;;;;;;5.50;99.90;;;;;;2069106;28;19925;-81
2024/03/09 04:38:17;;;;;;;;;;;5.50;99.90;;;;;;2069091;28;20308;-81
2024/03/09 04:39:19;;;;;;;;;;;5.50;99.90;;;;;;2069007;28;19914;-83
2024/03/09 04:40:20;;;;;;;;;;;5.50;99.90;;;;;;2068992;28;20004;-70
2024/03/09 04:41:21;;;;;;;;;;;5.50;99.90;;;;;;2067934;28;20583;-69
2024/03/09 04:42:24;;;;;;;;;;;5.60;99.90;;;;;;2068103;28;19921;-69
2024/03/09 04:43:26;;;;;;;;;;;5.60;99.90;;;;;;2067892;28;19976;-69
2024/03/09 04:44:26;;;;;;;;;;;5.50;99.90;;;;;;2067957;28;20343;-69
2024/03/09 04:45:30;;;;;;;;;;;5.50;99.90;;;;;;2067854;28;20075;-69
2024/03/09 04:46:30;;;;;;;;;;;5.60;99.90;;;;;;2067859;28;20386;-69
2024/03/09 04:47:32;;;;;;;;;;;5.60;99.90;;;;;;2067914;28;20140;-70
2024/03/09 04:48:33;;;;;;;;;;;5.60;99.90;;;;;;2068084;28;20272;-69
2024/03/09 04:49:34;;;;;;;;;;;5.60;99.90;;;;;;2068792;28;20728;-70
2024/03/09 04:50:35;;;;;;;;;;;5.60;99.90;;;;;;2068862;28;19918;-69
2024/03/09 04:51:35;;;;;;;;;;;5.60;99.90;;;;;;2068613;28;19963;-69
2024/03/09 04:52:37;;;;;;;;;;;5.60;99.90;;;;;;2068582;28;19918;-70
2024/03/09 04:53:38;;;;;;;;;;;5.60;99.90;;;;;;2067521;28;19945;-69
2024/03/09 04:54:43;;;;;;;;;;;5.60;99.90;;;;;;2067420;28;19961;-69
2024/03/09 04:55:48;;;;;;;;;;;5.60;99.90;;;;;;2068424;28;19913;-69
2024/03/09 04:56:49;;;;;;;;;;;5.60;99.90;;;;;;2067652;28;19920;-70
2024/03/09 04:57:50;;;;;;;;;;;5.60;99.90;;;;;;2068207;28;20405;-69
2024/03/09 04:58:50;;;;;;;;;;;5.70;99.90;;;;;;2068299;28;20008;-70
2024/03/09 04:59:50;;;;;;;;;;;5.60;99.90;;;;;;2068522;28;20024;-70
2024/03/09 05:00:51;;;;;;;;;;;5.70;99.90;;;;;;2068442;28;19964;-71
2024/03/09 05:01:51;;;;;;;;;;;5.70;99.90;;;;;;2068390;28;20398;-69
2024/03/09 05:02:52;;;;;;;;;;;5.70;99.90;;;;;;2068564;28;20268;-70
2024/03/09 05:03:52;;;;;;;;;;;5.80;99.90;;;;;;2067649;28;19924;-69
2024/03/09 05:04:53;;;;;;;;;;;5.80;99.90;;;;;;2067684;28;19914;-70
2024/03/09 05:05:53;;;;;;;;;;;5.80;99.90;;;;;;2067761;28;19920;-71
2024/03/09 05:06:54;;;;;;;;;;;5.80;99.90;;;;;;2068478;28;20355;-70
2024/03/09 05:07:54;;;;;;;;;;;5.80;99.90;;;;;;2068514;28;20342;-70
2024/03/09 05:08:57;;;;;;;;;;;5.80;99.90;;;;;;2068133;28;19921;-69
2024/03/09 05:09:57;;;;;;;;;;;5.80;99.90;;;;;;2068296;28;20398;-70
2024/03/09 05:10:58;;;;;;;;;;;5.80;99.90;;;;;;2068382;28;19920;-70
2024/03/09 05:11:58;;;;;;;;;;;5.80;99.90;;;;;;2068228;28;20306;-69
2024/03/09 05:13:00;;;;;;;;;;;5.80;99.90;;;;;;2068347;28;19991;-70
2024/03/09 05:14:00;;;;;;;;;;;5.70;99.90;;;;;;2068460;28;20410;-70
2024/03/09 05:15:01;;;;;;;;;;;5.80;99.90;;;;;;2067604;28;20463;-70
2024/03/09 05:16:01;;;;;;;;;;;5.80;99.90;;;;;;2067332;28;19929;-69
2024/03/09 05:17:02;;;;;;;;;;;5.80;99.90;;;;;;2068528;28;19921;-70
2024/03/09 05:18:07;;;;;;;;;;;5.80;99.90;;;;;;2068463;28;20019;-70
2024/03/09 05:19:08;;;;;;;;;;;5.80;99.90;;;;;;2068586;28;20000;-70
2024/03/09 05:20:14;;;;;;;;;;;5.80;99.90;;;;;;2068703;28;19924;-70
2024/03/09 05:21:16;;;;;;;;;;;5.80;99.90;;;;;;2070209;28;20375;-70
2024/03/09 05:22:17;;;;;;;;;;;5.80;99.90;;;;;;2062902;28;19918;-69
2024/03/09 05:23:18;;;;;;;;;;;5.80;99.90;;;;;;2059453;28;19914;-70
2024/03/09 05:24:18;;;;;;;;;;;5.80;99.90;;;;;;2068106;28;20306;-69
2024/03/09 05:25:21;;;;;;;;;;;5.80;99.90;;;;;;2068516;28;19917;-69
2024/03/09 05:26:23;;;;;;;;;;;5.80;99.90;;;;;;2068548;28;19913;-68
2024/03/09 05:27:24;;;;;;;;;;;5.80;99.90;;;;;;2067614;28;20044;-69
2024/03/09 05:28:25;;;;;;;;;;;5.80;99.90;;;;;;2067887;28;19924;-70
2024/03/09 05:29:26;;;;;;;;;;;5.80;99.90;;;;;;2068211;28;19920;-69
2024/03/09 05:30:29;;;;;;;;;;;5.80;99.90;;;;;;2068072;28;19925;-70
2024/03/09 05:31:30;;;;;;;;;;;5.80;99.90;;;;;;2064141;28;19920;-70
2024/03/09 05:32:31;;;;;;;;;;;5.80;99.90;;;;;;2068347;28;19919;-69
2024/03/09 05:33:31;;;;;;;;;;;5.90;99.90;;;;;;2068417;28;19910;-69
2024/03/09 05:34:36;;;;;;;;;;;5.90;99.90;;;;;;2068313;28;19960;-71
2024/03/09 05:35:37;;;;;;;;;;;5.90;99.90;;;;;;2067472;28;19968;-70
2024/03/09 05:36:39;;;;;;;;;;;5.90;99.90;;;;;;2067534;28;19925;-69
2024/03/09 05:37:42;;;;;;;;;;;5.90;99.90;;;;;;2067995;28;20229;-69
2024/03/09 05:38:44;;;;;;;;;;;5.90;99.90;;;;;;2067531;28;19947;-69
2024/03/09 05:39:44;;;;;;;;;;;5.80;99.90;;;;;;2067505;28;19927;-69
2024/03/09 05:40:45;;;;;;;;;;;5.80;99.90;;;;;;2068408;28;20004;-69
2024/03/09 05:41:45;;;;;;;;;;;5.80;99.90;;;;;;2067356;28;20392;-70
2024/03/09 05:42:47;;;;;;;;;;;5.90;99.90;;;;;;2067595;28;19917;-69
2024/03/09 05:43:49;;;;;;;;;;;5.90;99.90;;;;;;2068196;28;19928;-69
2024/03/09 05:44:49;;;;;;;;;;;5.90;99.90;;;;;;2067357;28;19918;-69
2024/03/09 05:45:50;;;;;;;;;;;5.90;99.90;;;;;;2067793;28;19917;-69
2024/03/09 05:46:50;;;;;;;;;;;5.90;99.90;;;;;;2068109;28;19922;-70
2024/03/09 05:47:52;;;;;;;;;;;5.90;99.90;;;;;;2067917;28;20024;-69
2024/03/09 05:48:53;;;;;;;;;;;6.00;99.90;;;;;;2064116;28;19960;-70
2024/03/09 05:49:53;;;;;;;;;;;5.90;99.90;;;;;;2067447;28;20109;-69
2024/03/09 05:50:54;;;;;;;;;;;5.90;99.90;;;;;;2067546;28;19995;-69
2024/03/09 05:51:55;;;;;;;;;;;5.90;99.90;;;;;;2068089;28;19952;-70
2024/03/09 05:52:57;;;;;;;;;;;5.90;99.90;;;;;;2068252;28;20335;-69
2024/03/09 05:53:57;;;;;;;;;;;6.00;99.90;;;;;;2068063;28;19917;-69
2024/03/09 05:54:58;;;;;;;;;;;5.90;99.90;;;;;;2068005;28;20005;-68
2024/03/09 05:55:58;;;;;;;;;;;5.90;99.90;;;;;;2068314;28;19944;-70
2024/03/09 05:56:59;;;;;;;;;;;5.90;99.90;;;;;;2067897;28;20332;-69
2024/03/09 05:57:59;;;;;;;;;;;6.00;99.90;;;;;;2068067;28;19976;-69
2024/03/09 05:59:00;;;;;;;;;;;5.90;99.90;;;;;;2067866;28;19918;-69
2024/03/09 06:00:00;;;;;;;;;;;5.90;99.90;;;;;;2068088;28;19968;-70
2024/03/09 06:01:01;;;;;;;;;;;5.90;99.90;;;;;;2067648;28;19913;-69
2024/03/09 06:02:02;;;;;;;;;;;5.90;99.90;;;;;;2059084;28;19914;-69
2024/03/09 06:03:03;;;;;;;;;;;6.00;99.90;;;;;;2059317;28;19921;-69
2024/03/09 06:04:04;;;;;;;;;;;5.90;99.90;;;;;;2059486;28;19917;-69